createdAt,value
2018-08-25T00:01:03.534Z,7.30
2018-08-25T00:03:33.032Z,7.80
2018-08-25T00:06:02.907Z,7.03
2018-08-25T00:08:33.641Z,6.37
2018-08-25T00:11:04.680Z,8.90
2018-08-25T00:13:34.448Z,6.78
2018-08-25T00:16:05.252Z,7.55
2018-08-25T00:18:35.094Z,8.55
2018-08-25T00:21:04.476Z,7.85
2018-08-25T00:23:33.732Z,9.68
2018-08-25T00:26:03.241Z,8.02
2018-08-25T00:28:32.641Z,9.13
2018-08-25T00:31:02.664Z,8.15
2018-08-25T00:33:33.778Z,7.95
2018-08-25T00:36:03.136Z,11.18
2018-08-25T00:38:32.686Z,7.85
2018-08-25T00:41:02.283Z,7.50
2018-08-25T00:43:32.030Z,7.57
2018-08-25T00:46:01.578Z,8.00
2018-08-25T00:48:31.017Z,7.80
2018-08-25T00:51:00.331Z,6.65
2018-08-25T00:53:30.059Z,6.50
2018-08-25T00:55:59.598Z,7.07
2018-08-25T00:58:29.740Z,6.97
2018-08-25T01:01:00.416Z,8.00
2018-08-25T01:03:29.721Z,8.07
2018-08-25T01:05:59.297Z,7.60
2018-08-25T01:08:29.190Z,8.50
2018-08-25T01:11:01.898Z,8.68
2018-08-25T01:13:31.271Z,8.65
2018-08-25T01:16:00.815Z,8.25
2018-08-25T01:18:30.455Z,7.22
2018-08-25T01:21:02.809Z,8.32
2018-08-25T01:23:32.447Z,7.18
2018-08-25T01:26:03.144Z,6.80
2018-08-25T01:28:32.537Z,7.03
2018-08-25T01:31:02.260Z,8.43
2018-08-25T01:33:32.120Z,7.55
2018-08-25T01:36:01.733Z,6.90
2018-08-25T01:38:31.186Z,8.50
2018-08-25T01:41:00.855Z,7.60
2018-08-25T01:43:30.427Z,9.98
2018-08-25T01:45:59.991Z,7.78
2018-08-25T01:48:29.725Z,10.23
2018-08-25T01:50:59.298Z,7.35
2018-08-25T01:53:29.051Z,8.80
2018-08-25T01:56:00.725Z,8.20
2018-08-25T01:58:30.404Z,9.35
2018-08-25T02:00:59.887Z,8.40
2018-08-25T02:03:29.717Z,8.07
2018-08-25T02:05:59.240Z,9.02
2018-08-25T02:08:42.136Z,8.23
2018-08-25T02:11:12.416Z,8.73
2018-08-25T02:13:42.488Z,9.15
2018-08-25T02:16:15.676Z,8.85
2018-08-25T02:18:45.340Z,8.98
2018-08-25T02:21:14.988Z,9.13
2018-08-25T02:23:44.805Z,9.27
2018-08-25T02:26:14.352Z,9.18
2018-08-25T02:28:43.835Z,10.45
2018-08-25T02:31:13.416Z,10.15
2018-08-25T02:33:42.851Z,9.63
2018-08-25T02:36:12.705Z,9.93
2018-08-25T02:38:44.291Z,9.45
2018-08-25T02:41:13.708Z,9.32
2018-08-25T02:43:43.962Z,9.45
2018-08-25T02:46:13.471Z,10.05
2018-08-25T02:48:42.834Z,9.90
2018-08-25T02:51:16.369Z,10.45
2018-08-25T02:53:45.645Z,10.43
2018-08-25T02:56:15.194Z,11.43
2018-08-25T02:58:44.709Z,10.27
2018-08-25T03:01:13.895Z,10.63
2018-08-25T03:03:43.219Z,10.88
2018-08-25T03:06:12.737Z,10.85
2018-08-25T03:08:42.685Z,10.80
2018-08-25T03:11:12.304Z,9.95
2018-08-25T03:13:42.115Z,10.43
2018-08-25T03:16:12.151Z,10.30
2018-08-25T03:18:43.901Z,10.45
2018-08-25T03:21:13.471Z,11.35
2018-08-25T03:23:42.825Z,9.60
2018-08-25T03:26:12.441Z,9.65
2018-08-25T03:28:41.792Z,10.15
2018-08-25T03:31:11.137Z,9.88
2018-08-25T03:33:42.057Z,9.60
2018-08-25T03:36:11.232Z,10.07
2018-08-25T03:38:40.835Z,11.52
2018-08-25T03:41:10.169Z,13.00
2018-08-25T03:43:39.984Z,10.32
2018-08-25T03:46:10.118Z,13.45
2018-08-25T03:48:39.688Z,9.93
2018-08-25T03:51:09.192Z,9.98
2018-08-25T03:53:38.435Z,15.32
2018-08-25T03:56:07.693Z,10.18
2018-08-25T03:58:37.172Z,10.02
2018-08-25T04:01:07.433Z,10.02
2018-08-25T04:03:39.832Z,9.82
2018-08-25T04:06:10.876Z,9.35
2018-08-25T04:08:40.653Z,9.60
2018-08-25T04:11:10.071Z,9.70
2018-08-25T04:13:39.234Z,10.00
2018-08-25T04:16:08.871Z,9.75
2018-08-25T04:18:38.330Z,10.05
2018-08-25T04:21:08.584Z,10.93
2018-08-25T04:23:38.164Z,9.75
2018-08-25T04:26:07.601Z,10.73
2018-08-25T04:28:36.902Z,10.55
2018-08-25T04:31:06.291Z,10.18
2018-08-25T04:33:36.745Z,9.88
2018-08-25T04:36:06.317Z,10.43
2018-08-25T04:38:35.870Z,10.52
2018-08-25T04:41:05.204Z,10.00
2018-08-25T04:43:36.917Z,9.68
2018-08-25T04:46:08.422Z,9.73
2018-08-25T04:48:38.155Z,9.90
2018-08-25T04:51:08.420Z,11.38
2018-08-25T04:53:40.510Z,9.77
2018-08-25T04:56:10.717Z,10.13
2018-08-25T04:58:41.051Z,10.02
2018-08-25T05:01:10.658Z,10.70
2018-08-25T05:03:40.493Z,11.70
2018-08-25T05:06:09.901Z,10.60
2018-08-25T05:08:39.590Z,10.55
2018-08-25T05:11:09.224Z,10.80
2018-08-25T05:13:38.512Z,10.45
2018-08-25T05:16:08.722Z,10.32
2018-08-25T05:18:38.133Z,10.75
2018-08-25T05:21:07.838Z,10.55
2018-08-25T05:23:37.436Z,10.88
2018-08-25T05:26:07.085Z,10.23
2018-08-25T05:28:37.677Z,11.12
2018-08-25T05:31:08.012Z,10.23
2018-08-25T05:33:37.510Z,10.25
2018-08-25T05:36:06.940Z,11.20
2018-08-25T05:38:36.228Z,10.90
2018-08-25T05:41:05.397Z,10.93
2018-08-25T05:43:34.900Z,14.20
2018-08-25T05:46:06.064Z,16.55
2018-08-25T05:48:35.557Z,12.55
2018-08-25T05:51:04.966Z,12.70
2018-08-25T05:53:35.129Z,19.90
2018-08-25T05:56:04.802Z,18.83
2018-08-25T05:58:34.908Z,15.82
2018-08-25T06:01:04.531Z,11.82
2018-08-25T06:03:34.149Z,11.15
2018-08-25T06:06:03.779Z,11.63
2018-08-25T06:08:33.400Z,14.35
2018-08-25T06:11:06.292Z,11.55
2018-08-25T06:13:51.167Z,12.02
2018-08-25T06:16:21.187Z,11.80
2018-08-25T06:18:50.706Z,13.95
2018-08-25T06:21:20.460Z,11.82
2018-08-25T06:23:50.144Z,11.90
2018-08-25T06:26:20.429Z,11.60
2018-08-25T06:28:49.980Z,12.20
2018-08-25T06:31:20.223Z,11.10
2018-08-25T06:33:50.368Z,11.48
2018-08-25T06:36:20.116Z,11.73
2018-08-25T06:38:49.838Z,12.95
2018-08-25T06:41:19.424Z,12.73
2018-08-25T06:43:48.984Z,13.35
2018-08-25T06:46:18.815Z,11.02
2018-08-25T06:48:48.631Z,12.18
2018-08-25T06:51:18.635Z,11.38
2018-08-25T06:53:48.049Z,11.95
2018-08-25T06:56:17.471Z,11.52
2018-08-25T06:58:47.611Z,11.73
2018-08-25T07:01:17.034Z,11.70
2018-08-25T07:03:46.325Z,12.25
2018-08-25T07:06:17.353Z,12.32
2018-08-25T07:08:46.752Z,12.35
2018-08-25T07:11:17.500Z,11.98
2018-08-25T07:13:47.591Z,11.73
2018-08-25T07:16:17.191Z,11.43
2018-08-25T07:18:46.496Z,12.40
2018-08-25T07:21:16.061Z,12.68
2018-08-25T07:23:45.572Z,13.73
2018-08-25T07:26:15.049Z,13.38
2018-08-25T07:28:45.278Z,12.65
2018-08-25T07:31:14.949Z,15.93
2018-08-25T07:33:44.377Z,16.40
2018-08-25T07:36:14.684Z,16.23
2018-08-25T07:38:44.044Z,15.32
2018-08-25T07:41:13.470Z,16.48
2018-08-25T07:43:42.894Z,16.52
2018-08-25T07:46:12.409Z,17.62
2018-08-25T07:48:42.859Z,19.50
2018-08-25T07:51:12.582Z,20.33
2018-08-25T07:53:41.891Z,18.83
2018-08-25T07:56:11.302Z,18.62
2018-08-25T07:58:40.945Z,18.37
2018-08-25T08:01:10.524Z,19.60
2018-08-25T08:03:39.945Z,19.75
2018-08-25T08:06:10.309Z,20.17
2018-08-25T08:08:40.069Z,20.77
2018-08-25T08:11:10.009Z,19.77
2018-08-25T08:13:40.840Z,18.85
2018-08-25T08:16:10.228Z,19.37
2018-08-25T08:18:40.396Z,18.17
2018-08-25T08:21:10.177Z,19.97
2018-08-25T08:23:39.529Z,17.77
2018-08-25T08:26:10.118Z,16.57
2018-08-25T08:28:40.586Z,14.73
2018-08-25T08:31:10.310Z,15.30
2018-08-25T08:33:40.052Z,16.40
2018-08-25T08:36:10.941Z,15.75
2018-08-25T08:38:41.308Z,15.20
2018-08-25T08:41:10.723Z,16.20
2018-08-25T08:43:40.332Z,14.83
2018-08-25T08:46:09.604Z,17.70
2018-08-25T08:48:39.345Z,17.62
2018-08-25T08:51:09.556Z,15.03
2018-08-25T08:53:38.898Z,16.60
2018-08-25T08:56:08.368Z,16.17
2018-08-25T08:58:38.034Z,15.80
2018-08-25T09:01:07.585Z,15.50
2018-08-25T09:03:37.020Z,15.57
2018-08-25T09:06:06.896Z,14.75
2018-08-25T09:08:36.488Z,14.20
2018-08-25T09:11:05.986Z,14.63
2018-08-25T09:13:35.610Z,14.40
2018-08-25T09:16:06.384Z,16.08
2018-08-25T09:18:36.341Z,16.77
2018-08-25T09:21:06.168Z,14.77
2018-08-25T09:23:35.562Z,15.43
2018-08-25T09:26:05.297Z,15.93
2018-08-25T09:28:34.838Z,14.27
2018-08-25T09:31:04.513Z,14.50
2018-08-25T09:33:33.837Z,14.57
2018-08-25T09:36:04.317Z,14.07
2018-08-25T09:38:33.951Z,14.13
2018-08-25T09:41:03.396Z,14.40
2018-08-25T09:43:34.389Z,13.80
2018-08-25T09:46:04.039Z,13.50
2018-08-25T09:48:34.220Z,14.63
2018-08-25T09:51:04.027Z,14.20
2018-08-25T09:53:33.791Z,14.03
2018-08-25T09:56:03.065Z,14.20
2018-08-25T09:58:33.367Z,14.40
2018-08-25T10:01:02.850Z,13.47
2018-08-25T10:03:32.499Z,14.00
2018-08-25T10:06:02.822Z,15.03
2018-08-25T10:08:32.928Z,14.30
2018-08-25T10:11:02.642Z,14.13
2018-08-25T10:13:32.375Z,14.10
2018-08-25T10:16:01.929Z,14.85
2018-08-25T10:18:32.260Z,13.47
2018-08-25T10:21:01.802Z,15.03
2018-08-25T10:23:31.392Z,15.13
2018-08-25T10:26:00.997Z,13.75
2018-08-25T10:28:30.432Z,12.97
2018-08-25T10:30:59.915Z,14.00
2018-08-25T10:33:30.121Z,14.30
2018-08-25T10:35:59.530Z,13.90
2018-08-25T10:38:29.379Z,14.33
2018-08-25T10:40:59.373Z,15.30
2018-08-25T10:43:29.766Z,14.83
2018-08-25T10:45:59.064Z,15.07
2018-08-25T10:48:29.169Z,16.00
2018-08-25T10:50:58.501Z,15.60
2018-08-25T10:53:30.885Z,14.37
2018-08-25T10:56:00.601Z,15.27
2018-08-25T10:58:30.156Z,14.67
2018-08-25T11:01:02.994Z,15.90
2018-08-25T11:03:32.686Z,14.60
2018-08-25T11:06:03.200Z,16.17
2018-08-25T11:08:32.743Z,15.40
2018-08-25T11:11:03.468Z,15.17
2018-08-25T11:13:32.975Z,15.45
2018-08-25T11:16:02.632Z,15.50
2018-08-25T11:18:32.258Z,15.02
2018-08-25T11:21:01.535Z,15.97
2018-08-25T11:23:31.178Z,15.77
2018-08-25T11:26:00.560Z,16.03
2018-08-25T11:28:29.917Z,15.18
2018-08-25T11:31:00.313Z,16.33
2018-08-25T11:33:30.544Z,15.57
2018-08-25T11:36:00.887Z,15.83
2018-08-25T11:38:31.223Z,15.13
2018-08-25T11:41:01.329Z,15.03
2018-08-25T11:43:31.534Z,14.83
2018-08-25T11:46:00.908Z,13.80
2018-08-25T11:48:30.144Z,14.67
2018-08-25T11:51:00.235Z,14.40
2018-08-25T11:53:29.735Z,14.93
2018-08-25T11:55:59.409Z,15.00
2018-08-25T11:58:28.795Z,15.17
2018-08-25T12:00:59.108Z,14.17
2018-08-25T12:03:29.414Z,13.97
2018-08-25T12:05:59.311Z,14.13
2018-08-25T12:08:28.652Z,14.37
2018-08-25T12:10:58.521Z,13.90
2018-08-25T12:13:27.902Z,14.67
2018-08-25T12:15:57.446Z,14.13
2018-08-25T12:18:27.599Z,14.13
2018-08-25T12:20:57.986Z,13.63
2018-08-25T12:23:28.240Z,14.13
2018-08-25T12:25:58.037Z,12.70
2018-08-25T12:28:28.552Z,12.13
2018-08-25T12:30:57.761Z,12.73
2018-08-25T12:33:27.276Z,12.60
2018-08-25T12:35:57.149Z,11.80
2018-08-25T12:38:27.331Z,12.67
2018-08-25T12:40:57.313Z,12.37
2018-08-25T12:43:26.592Z,12.83
2018-08-25T12:45:56.035Z,12.77
2018-08-25T12:48:26.325Z,12.20
2018-08-25T12:50:55.813Z,12.70
2018-08-25T12:53:26.172Z,12.82
2018-08-25T12:55:55.481Z,13.30
2018-08-25T12:58:25.145Z,14.53
2018-08-25T13:00:54.909Z,13.07
2018-08-25T13:03:25.170Z,13.67
2018-08-25T13:05:54.382Z,15.30
2018-08-25T13:08:23.813Z,12.60
2018-08-25T13:10:53.528Z,13.13
2018-08-25T13:13:23.164Z,13.03
2018-08-25T13:15:52.753Z,13.85
2018-08-25T13:18:22.718Z,14.27
2018-08-25T13:20:52.291Z,12.65
2018-08-25T13:23:22.026Z,13.27
2018-08-25T13:25:51.603Z,13.07
2018-08-25T13:28:21.814Z,13.03
2018-08-25T13:30:51.625Z,13.45
2018-08-25T13:33:21.193Z,13.30
2018-08-25T13:35:50.860Z,14.73
2018-08-25T13:38:20.392Z,13.47
2018-08-25T13:40:49.791Z,13.27
2018-08-25T13:43:19.240Z,13.50
2018-08-25T13:45:49.204Z,13.02
2018-08-25T13:48:18.580Z,13.50
2018-08-25T13:50:48.668Z,13.97
2018-08-25T13:53:18.357Z,14.07
2018-08-25T13:55:48.038Z,13.38
2018-08-25T13:58:17.732Z,12.93
2018-08-25T14:00:47.327Z,14.43
2018-08-25T14:03:17.328Z,15.38
2018-08-25T14:05:46.859Z,18.53
2018-08-25T14:08:17.210Z,17.30
2018-08-25T14:10:46.845Z,19.70
2018-08-25T14:13:16.208Z,19.50
2018-08-25T14:15:45.744Z,17.50
2018-08-25T14:18:15.339Z,16.43
2018-08-25T14:20:45.464Z,15.68
2018-08-25T14:23:16.038Z,15.65
2018-08-25T14:25:45.323Z,14.20
2018-08-25T14:28:16.262Z,15.97
2018-08-25T14:30:45.869Z,18.42
2018-08-25T14:33:15.525Z,18.30
2018-08-25T14:35:44.913Z,16.37
2018-08-25T14:38:15.077Z,16.83
2018-08-25T14:40:44.640Z,18.55
2018-08-25T14:43:14.308Z,20.17
2018-08-25T14:45:43.772Z,19.53
2018-08-25T14:48:13.430Z,20.52
2018-08-25T14:50:42.670Z,20.37
2018-08-25T14:53:12.147Z,21.83
2018-08-25T14:55:42.098Z,21.50
2018-08-25T14:58:11.346Z,20.42
2018-08-25T15:00:41.002Z,22.25
2018-08-25T15:03:11.332Z,23.48
2018-08-25T15:05:40.910Z,24.17
2018-08-25T15:08:10.181Z,23.53
2018-08-25T15:10:39.602Z,23.02
2018-08-25T15:13:09.182Z,24.63
2018-08-25T15:15:38.480Z,23.80
2018-08-25T15:18:08.075Z,24.05
2018-08-25T15:20:37.392Z,23.55
2018-08-25T15:23:06.959Z,25.80
2018-08-25T15:25:37.944Z,25.20
2018-08-25T15:28:07.495Z,25.37
2018-08-25T15:30:36.868Z,27.37
2018-08-25T15:33:06.703Z,29.10
2018-08-25T15:35:35.975Z,31.37
2018-08-25T15:38:06.245Z,31.67
2018-08-25T15:40:35.866Z,31.92
2018-08-25T15:43:05.473Z,28.92
2018-08-25T15:45:35.301Z,30.67
2018-08-25T15:48:05.081Z,36.60
2018-08-25T15:50:34.534Z,43.53
2018-08-25T15:53:04.477Z,43.80
2018-08-25T15:55:34.011Z,45.92
2018-08-25T15:58:04.521Z,43.00
2018-08-25T16:00:34.429Z,45.03
2018-08-25T16:03:04.992Z,45.47
2018-08-25T16:05:35.541Z,47.15
2018-08-25T16:08:04.945Z,47.15
2018-08-25T16:10:35.267Z,45.83
2018-08-25T16:13:04.854Z,46.92
2018-08-25T16:15:34.281Z,47.40
2018-08-25T16:18:04.351Z,46.60
2018-08-25T16:20:34.904Z,47.90
2018-08-25T16:23:04.251Z,47.65
2018-08-25T16:25:33.752Z,49.00
2018-08-25T16:28:03.693Z,48.33
2018-08-25T16:30:33.285Z,49.28
2018-08-25T16:33:02.925Z,50.90
2018-08-25T16:35:33.502Z,51.28
2018-08-25T16:38:03.440Z,49.60
2018-08-25T16:40:33.258Z,49.33
2018-08-25T16:43:02.260Z,48.85
2018-08-25T16:45:32.861Z,50.88
2018-08-25T16:48:03.268Z,50.17
2018-08-25T16:50:33.443Z,48.80
2018-08-25T16:53:06.938Z,49.13
2018-08-25T16:55:37.378Z,48.85
2018-08-25T16:58:07.741Z,49.65
2018-08-25T17:00:37.068Z,47.40
2018-08-25T17:03:06.492Z,48.97
2018-08-25T17:05:36.017Z,48.15
2018-08-25T17:08:05.926Z,46.72
2018-08-25T17:10:35.396Z,50.53
2018-08-25T17:13:05.530Z,50.25
2018-08-25T17:15:35.864Z,50.05
2018-08-25T17:18:05.498Z,50.38
2018-08-25T17:20:35.184Z,52.22
2018-08-25T17:23:04.921Z,63.90
2018-08-25T17:25:34.347Z,52.75
2018-08-25T17:28:03.670Z,55.67
2018-08-25T17:30:33.569Z,56.17
2018-08-25T17:33:03.184Z,65.78
2018-08-25T17:35:32.880Z,68.53
2018-08-25T17:38:02.573Z,80.43
2018-08-25T17:40:31.966Z,72.85
2018-08-25T17:43:01.105Z,76.85
2018-08-25T17:45:31.061Z,79.20
2018-08-25T17:48:01.247Z,61.37
2018-08-25T17:50:30.836Z,63.97
2018-08-25T17:53:00.785Z,64.90
2018-08-25T17:55:30.407Z,73.05
2018-08-25T17:58:01.775Z,94.93
2018-08-25T18:00:31.260Z,82.85
2018-08-25T18:03:00.954Z,91.32
2018-08-25T18:05:30.296Z,102.90
2018-08-25T18:07:59.841Z,72.32
2018-08-25T18:10:29.624Z,89.80
2018-08-25T18:13:00.016Z,101.47
2018-08-25T18:15:29.900Z,87.87
2018-08-25T18:17:59.820Z,107.10
2018-08-25T18:20:29.572Z,92.25
2018-08-25T18:22:59.701Z,94.05
2018-08-25T18:25:29.279Z,96.77
2018-08-25T18:27:58.838Z,100.93
2018-08-25T18:30:29.337Z,101.93
2018-08-25T18:32:59.064Z,90.12
2018-08-25T18:35:29.857Z,119.83
2018-08-25T18:37:59.149Z,108.40
2018-08-25T18:40:28.754Z,113.77
2018-08-25T18:42:58.267Z,97.80
2018-08-25T18:45:28.557Z,118.10
2018-08-25T18:48:00.093Z,112.07
2018-08-25T18:50:30.407Z,118.07
2018-08-25T18:53:00.381Z,117.53
2018-08-25T18:55:30.115Z,115.95
2018-08-25T18:57:59.503Z,121.87
2018-08-25T19:00:30.814Z,121.53
2018-08-25T19:03:00.498Z,141.43
2018-08-25T19:05:29.950Z,146.80
2018-08-25T19:07:59.981Z,146.32
2018-08-25T19:10:29.707Z,339.25
2018-08-25T19:12:59.177Z,182.00
2018-08-25T19:15:29.627Z,145.43
2018-08-25T19:17:59.681Z,269.30
2018-08-25T19:20:29.666Z,225.15
2018-08-25T19:23:00.989Z,250.60
2018-08-25T19:25:30.445Z,229.43
2018-08-25T19:28:00.023Z,271.95
2018-08-25T19:30:30.446Z,271.58
2018-08-25T19:33:01.053Z,235.90
2018-08-25T19:35:30.593Z,223.62
2018-08-25T19:37:59.992Z,233.52
2018-08-25T19:40:30.514Z,244.15
2018-08-25T19:43:00.542Z,248.97
2018-08-25T19:45:29.957Z,254.27
2018-08-25T19:47:59.555Z,253.43
2018-08-25T19:50:29.044Z,231.20
2018-08-25T19:52:59.531Z,197.37
2018-08-25T19:55:28.888Z,212.93
2018-08-25T19:57:58.378Z,215.53
2018-08-25T20:00:28.604Z,256.43
2018-08-25T20:02:59.125Z,192.87
2018-08-25T20:05:28.674Z,216.37
2018-08-25T20:07:58.524Z,176.68
2018-08-25T20:10:27.938Z,181.43
2018-08-25T20:12:57.353Z,212.90
2018-08-25T20:15:27.734Z,187.52
2018-08-25T20:17:57.297Z,221.65
2018-08-25T20:20:26.927Z,163.07
2018-08-25T20:22:57.320Z,193.20
2018-08-25T20:25:27.248Z,175.80
2018-08-25T20:27:56.725Z,199.67
2018-08-25T20:30:26.413Z,192.90
2018-08-25T20:32:55.854Z,173.45
2018-08-25T20:35:25.174Z,196.90
2018-08-25T20:37:54.549Z,162.62
2018-08-25T20:40:24.044Z,184.73
2018-08-25T20:42:53.768Z,190.47
2018-08-25T20:45:23.468Z,191.67
2018-08-25T20:47:53.771Z,194.27
2018-08-25T20:50:23.520Z,212.97
2018-08-25T20:52:54.236Z,207.65
2018-08-25T20:55:23.844Z,163.60
2018-08-25T20:57:53.840Z,245.18
2018-08-25T21:00:23.510Z,262.70
2018-08-25T21:02:56.347Z,228.07
2018-08-25T21:05:26.086Z,203.70
2018-08-25T21:07:56.489Z,242.00
2018-08-25T21:10:26.224Z,249.73
2018-08-25T21:12:56.695Z,240.45
2018-08-25T21:15:26.441Z,252.67
2018-08-25T21:17:56.169Z,215.02
2018-08-25T21:20:25.887Z,169.13
2018-08-25T21:22:56.147Z,127.83
2018-08-25T21:25:25.610Z,144.70
2018-08-25T21:27:55.199Z,153.03
2018-08-25T21:30:25.807Z,156.07
2018-08-25T21:32:55.506Z,89.90
2018-08-25T21:35:25.057Z,86.33
2018-08-25T21:37:55.570Z,82.93
2018-08-25T21:40:25.286Z,72.15
2018-08-25T21:42:54.669Z,65.97
2018-08-25T21:45:24.316Z,80.12
2018-08-25T21:47:53.898Z,85.93
2018-08-25T21:50:23.408Z,75.33
2018-08-25T21:52:53.695Z,61.43
2018-08-25T21:55:23.256Z,77.37
2018-08-25T21:57:52.873Z,91.57
2018-08-25T22:00:22.540Z,75.60
2018-08-25T22:02:52.084Z,70.18
2018-08-25T22:05:22.191Z,70.47
2018-08-25T22:07:51.550Z,75.93
2018-08-25T22:10:21.056Z,67.10
2018-08-25T22:12:51.443Z,73.20
2018-08-25T22:15:29.857Z,71.70
2018-08-25T22:17:59.365Z,73.37
2018-08-25T22:20:29.239Z,76.87
2018-08-25T22:22:59.121Z,82.60
2018-08-25T22:25:28.419Z,69.85
2018-08-25T22:27:57.974Z,75.20
2018-08-25T22:30:28.491Z,86.77
2018-08-25T22:32:59.250Z,76.73
2018-08-25T22:35:29.677Z,79.77
2018-08-25T22:37:59.084Z,75.73
2018-08-25T22:40:29.891Z,70.12
2018-08-25T22:42:59.416Z,69.57
2018-08-25T22:45:29.562Z,80.57
2018-08-25T22:47:58.972Z,72.90
2018-08-25T22:50:28.601Z,68.25
2018-08-25T22:52:58.776Z,72.37
2018-08-25T22:55:28.646Z,71.70
2018-08-25T22:57:58.397Z,68.05
2018-08-25T23:00:29.036Z,74.80
2018-08-25T23:02:58.704Z,70.70
2018-08-25T23:05:28.413Z,69.87
2018-08-25T23:07:58.017Z,81.33
2018-08-25T23:10:28.521Z,74.57
2018-08-25T23:12:59.003Z,81.78
2018-08-25T23:15:29.953Z,77.35
2018-08-25T23:18:00.476Z,71.93
2018-08-25T23:20:30.787Z,72.63
2018-08-25T23:23:00.863Z,73.32
2018-08-25T23:25:31.596Z,73.68
2018-08-25T23:28:01.250Z,99.00
2018-08-25T23:30:30.897Z,74.85
2018-08-25T23:33:00.233Z,71.87
2018-08-25T23:35:30.883Z,74.93
2018-08-25T23:38:00.800Z,73.45
2018-08-25T23:40:32.005Z,63.60
2018-08-25T23:43:01.982Z,66.18
2018-08-25T23:45:31.904Z,64.00
2018-08-25T23:48:02.415Z,58.25
2018-08-25T23:50:31.803Z,53.42
2018-08-25T23:53:00.929Z,63.00
2018-08-25T23:55:30.405Z,60.10
2018-08-25T23:58:00.200Z,55.17
